createdAt,value
2019-01-02T00:00:57.645Z,77.77
2019-01-02T00:03:26.383Z,76.40
2019-01-02T00:05:55.231Z,76.09
2019-01-02T00:08:24.070Z,76.41
2019-01-02T00:10:52.755Z,77.49
2019-01-02T00:13:21.501Z,76.74
2019-01-02T00:15:50.215Z,76.25
2019-01-02T00:18:19.193Z,77.08
2019-01-02T00:20:47.627Z,77.09
2019-01-02T00:23:16.558Z,76.01
2019-01-02T00:25:45.005Z,76.42
2019-01-02T00:28:14.077Z,75.18
2019-01-02T00:30:42.806Z,76.85
2019-01-02T00:33:11.290Z,76.45
2019-01-02T00:35:40.021Z,76.17
2019-01-02T00:38:08.552Z,77.05
2019-01-02T00:40:36.965Z,76.75
2019-01-02T00:43:05.457Z,75.18
2019-01-02T00:45:35.665Z,77.10
2019-01-02T00:48:04.143Z,76.40
2019-01-02T00:50:33.288Z,77.04
2019-01-02T00:53:01.851Z,76.71
2019-01-02T00:55:30.908Z,75.27
2019-01-02T00:57:59.750Z,75.16
2019-01-02T01:00:29.004Z,75.00
2019-01-02T01:02:57.416Z,74.99
2019-01-02T01:05:26.127Z,73.25
2019-01-02T01:07:54.832Z,74.49
2019-01-02T01:10:23.259Z,74.33
2019-01-02T01:12:51.744Z,73.12
2019-01-02T01:15:20.235Z,73.75
2019-01-02T01:17:48.960Z,73.92
2019-01-02T01:20:18.000Z,74.43
2019-01-02T01:22:46.710Z,72.70
2019-01-02T01:25:15.491Z,73.40
2019-01-02T01:27:43.917Z,72.25
2019-01-02T01:30:12.765Z,73.36
2019-01-02T01:32:41.492Z,73.64
2019-01-02T01:35:12.015Z,73.81
2019-01-02T01:37:43.848Z,73.33
2019-01-02T01:40:12.620Z,73.65
2019-01-02T01:42:41.274Z,73.51
2019-01-02T01:45:11.214Z,72.21
2019-01-02T01:47:40.042Z,73.59
2019-01-02T01:50:10.282Z,72.24
2019-01-02T01:52:39.068Z,72.42
2019-01-02T01:55:08.118Z,72.84
2019-01-02T01:57:37.290Z,72.97
2019-01-02T02:00:16.983Z,72.33
2019-01-02T02:02:45.748Z,72.60
2019-01-02T02:05:14.501Z,73.37
2019-01-02T02:07:42.991Z,73.19
2019-01-02T02:10:14.501Z,73.07
2019-01-02T02:12:43.240Z,74.01
2019-01-02T02:15:12.246Z,73.91
2019-01-02T02:17:41.239Z,73.41
2019-01-02T02:20:11.921Z,73.56
2019-01-02T02:22:40.653Z,72.29
2019-01-02T02:25:14.733Z,72.93
2019-01-02T02:27:43.433Z,73.51
2019-01-02T02:30:14.564Z,73.66
2019-01-02T02:32:44.216Z,73.28
2019-01-02T02:35:13.058Z,72.39
2019-01-02T02:37:41.930Z,74.73
2019-01-02T02:40:13.596Z,74.85
2019-01-02T02:42:42.266Z,74.93
2019-01-02T02:45:12.592Z,75.17
2019-01-02T02:47:41.379Z,77.40
2019-01-02T02:50:13.379Z,77.75
2019-01-02T02:52:41.805Z,77.36
2019-01-02T02:55:13.590Z,77.54
2019-01-02T02:57:42.289Z,77.83
2019-01-02T03:00:13.282Z,76.91
2019-01-02T03:02:42.139Z,77.67
2019-01-02T03:05:12.904Z,77.87
2019-01-02T03:07:42.000Z,77.84
2019-01-02T03:10:13.413Z,77.50
2019-01-02T03:12:42.382Z,78.78
2019-01-02T03:15:12.420Z,77.91
2019-01-02T03:17:41.223Z,78.25
2019-01-02T03:20:16.554Z,78.21
2019-01-02T03:22:45.491Z,79.02
2019-01-02T03:25:15.023Z,78.62
2019-01-02T03:27:44.201Z,78.54
2019-01-02T03:30:16.310Z,78.98
2019-01-02T03:32:47.469Z,77.99
2019-01-02T03:35:16.297Z,78.06
2019-01-02T03:37:45.155Z,77.68
2019-01-02T03:40:13.989Z,78.24
2019-01-02T03:42:42.747Z,77.60
2019-01-02T03:45:14.226Z,78.49
2019-01-02T03:47:42.935Z,79.05
2019-01-02T03:50:14.359Z,78.45
2019-01-02T03:52:42.852Z,78.16
2019-01-02T03:55:11.689Z,77.63
2019-01-02T03:57:40.470Z,78.09
2019-01-02T04:00:19.539Z,77.37
2019-01-02T04:02:48.143Z,77.86
2019-01-02T04:05:19.766Z,77.95
2019-01-02T04:07:51.436Z,77.59
2019-01-02T04:10:19.859Z,77.79
2019-01-02T04:12:48.833Z,78.32
2019-01-02T04:15:17.530Z,78.24
2019-01-02T04:17:46.030Z,78.11
2019-01-02T04:20:14.742Z,77.86
2019-01-02T04:22:43.170Z,77.49
2019-01-02T04:25:11.925Z,78.33
2019-01-02T04:27:40.610Z,78.51
2019-01-02T04:30:15.237Z,78.81
2019-01-02T04:32:43.707Z,80.04
2019-01-02T04:35:12.385Z,80.71
2019-01-02T04:37:41.057Z,80.05
2019-01-02T04:40:11.814Z,80.24
2019-01-02T04:42:40.676Z,80.53
2019-01-02T04:45:11.113Z,80.54
2019-01-02T04:47:39.983Z,79.46
2019-01-02T04:50:14.912Z,79.44
2019-01-02T04:52:43.691Z,79.30
2019-01-02T04:55:12.420Z,79.10
2019-01-02T04:57:41.112Z,79.31
2019-01-02T05:00:12.423Z,79.36
2019-01-02T05:02:41.179Z,78.94
2019-01-02T05:05:09.718Z,78.80
2019-01-02T05:07:38.170Z,78.61
2019-01-02T05:10:11.963Z,79.98
2019-01-02T05:12:40.698Z,78.78
2019-01-02T05:15:10.921Z,79.39
2019-01-02T05:17:40.514Z,79.75
2019-01-02T05:20:11.263Z,79.76
2019-01-02T05:22:40.034Z,78.78
2019-01-02T05:25:09.337Z,79.22
2019-01-02T05:27:38.128Z,79.42
2019-01-02T05:30:12.585Z,79.43
2019-01-02T05:32:41.410Z,80.02
2019-01-02T05:35:10.103Z,79.68
2019-01-02T05:37:38.958Z,79.08
2019-01-02T05:40:13.270Z,79.80
2019-01-02T05:42:43.130Z,79.98
2019-01-02T05:45:11.570Z,79.90
2019-01-02T05:47:40.302Z,79.29
2019-01-02T05:50:09.473Z,80.11
2019-01-02T05:52:37.942Z,79.61
2019-01-02T05:55:07.624Z,79.73
2019-01-02T05:57:36.296Z,79.90
2019-01-02T06:00:07.803Z,79.79
2019-01-02T06:02:36.461Z,79.31
2019-01-02T06:05:06.443Z,79.59
2019-01-02T06:07:35.199Z,79.74
2019-01-02T06:10:04.940Z,80.18
2019-01-02T06:12:33.358Z,80.01
2019-01-02T06:15:02.084Z,79.60
2019-01-02T06:17:30.774Z,80.24
2019-01-02T06:19:59.550Z,80.42
2019-01-02T06:22:28.403Z,80.19
2019-01-02T06:24:57.168Z,80.98
2019-01-02T06:27:25.880Z,80.73
2019-01-02T06:29:54.555Z,81.17
2019-01-02T06:32:22.986Z,81.29
2019-01-02T06:34:51.664Z,81.66
2019-01-02T06:37:20.352Z,81.04
2019-01-02T06:39:49.158Z,81.81
2019-01-02T06:42:17.908Z,81.62
2019-01-02T06:44:46.618Z,81.22
2019-01-02T06:47:15.336Z,81.13
2019-01-02T06:49:43.737Z,81.59
2019-01-02T06:52:12.494Z,81.46
2019-01-02T06:54:41.171Z,81.90
2019-01-02T06:57:09.875Z,82.05
2019-01-02T06:59:38.584Z,81.94
2019-01-02T07:02:07.482Z,82.17
2019-01-02T07:04:36.005Z,82.38
2019-01-02T07:07:04.763Z,82.07
2019-01-02T07:09:33.459Z,82.22
2019-01-02T07:12:02.193Z,81.53
2019-01-02T07:14:30.868Z,82.37
2019-01-02T07:16:59.615Z,82.40
2019-01-02T07:19:28.086Z,82.82
2019-01-02T07:21:56.770Z,82.59
2019-01-02T07:24:25.493Z,82.80
2019-01-02T07:26:54.175Z,82.53
2019-01-02T07:29:22.931Z,82.49
2019-01-02T07:31:51.671Z,82.37
2019-01-02T07:34:21.444Z,82.86
2019-01-02T07:37:17.509Z,82.70
2019-01-02T07:40:17.542Z,84.37
2019-01-02T07:43:04.154Z,83.35
2019-01-02T07:45:52.260Z,83.19
2019-01-02T07:48:26.868Z,83.72
2019-01-02T07:51:13.770Z,84.08
2019-01-02T07:53:57.152Z,83.35
2019-01-02T07:56:43.824Z,83.92
2019-01-02T07:59:24.508Z,83.54
2019-01-02T08:02:07.807Z,83.91
2019-01-02T08:04:45.422Z,84.11
2019-01-02T08:07:42.825Z,83.63
2019-01-02T08:10:23.162Z,84.07
2019-01-02T08:13:16.047Z,83.20
2019-01-02T08:16:22.563Z,83.38
2019-01-02T08:18:54.305Z,83.21
2019-01-02T08:22:00.025Z,83.18
2019-01-02T08:24:37.584Z,82.73
2019-01-02T08:27:31.631Z,82.68
2019-01-02T08:30:12.368Z,83.29
2019-01-02T08:33:01.932Z,83.53
2019-01-02T08:35:42.010Z,83.33
2019-01-02T08:38:28.530Z,82.51
2019-01-02T08:41:09.250Z,82.60
2019-01-02T08:43:58.972Z,83.04
2019-01-02T08:46:42.609Z,83.00
2019-01-02T08:49:35.434Z,83.17
2019-01-02T08:52:22.023Z,83.31
2019-01-02T08:55:02.344Z,83.03
2019-01-02T08:57:46.012Z,82.77
2019-01-02T09:00:29.651Z,82.66
2019-01-02T09:03:19.101Z,82.74
2019-01-02T09:05:56.636Z,83.21
2019-01-02T09:08:28.170Z,82.97
2019-01-02T09:11:11.915Z,83.06
2019-01-02T09:13:55.253Z,83.04
2019-01-02T09:16:33.067Z,83.33
2019-01-02T09:19:10.274Z,83.52
2019-01-02T09:21:42.124Z,83.30
2019-01-02T09:24:39.417Z,83.51
2019-01-02T09:27:25.940Z,83.36
2019-01-02T09:30:29.359Z,83.40
2019-01-02T09:33:12.977Z,83.38
2019-01-02T09:36:01.936Z,83.59
2019-01-02T09:39:00.645Z,83.32
2019-01-02T09:41:32.381Z,83.27
2019-01-02T09:44:20.712Z,82.54
2019-01-02T09:47:10.443Z,82.99
2019-01-02T09:49:44.858Z,82.49
2019-01-02T09:52:27.783Z,82.09
2019-01-02T09:55:02.435Z,81.99
2019-01-02T09:57:53.514Z,82.00
2019-01-02T10:00:28.119Z,81.80
2019-01-02T10:03:16.112Z,81.01
2019-01-02T10:06:02.561Z,81.07
2019-01-02T10:08:40.205Z,81.21
2019-01-02T10:11:18.120Z,80.88
2019-01-02T10:14:09.353Z,81.22
2019-01-02T10:16:57.486Z,81.54
2019-01-02T10:19:46.183Z,81.47
2019-01-02T10:22:36.104Z,80.55
2019-01-02T10:25:10.611Z,81.57
2019-01-02T10:27:43.516Z,81.71
2019-01-02T10:30:32.750Z,81.37
2019-01-02T10:33:10.357Z,81.26
2019-01-02T10:36:00.325Z,80.68
2019-01-02T10:38:54.407Z,80.15
2019-01-02T10:42:01.018Z,80.67
2019-01-02T10:44:38.475Z,80.36
2019-01-02T10:47:12.885Z,80.47
2019-01-02T10:49:53.509Z,80.03
2019-01-02T10:52:47.569Z,80.83
2019-01-02T10:55:38.736Z,80.17
2019-01-02T10:58:28.413Z,80.15
2019-01-02T11:01:15.086Z,80.53
2019-01-02T11:04:06.335Z,79.96
2019-01-02T11:06:46.730Z,79.66
2019-01-02T11:09:30.136Z,80.07
2019-01-02T11:12:13.519Z,80.49
2019-01-02T11:14:47.700Z,79.43
2019-01-02T11:17:22.214Z,79.48
2019-01-02T11:20:10.705Z,79.75
2019-01-02T11:22:48.525Z,79.50
2019-01-02T11:25:38.492Z,78.71
2019-01-02T11:28:12.641Z,78.43
2019-01-02T11:30:47.075Z,77.81
2019-01-02T11:33:51.902Z,77.87
2019-01-02T11:36:58.403Z,78.46
2019-01-02T11:39:46.218Z,78.54
2019-01-02T11:42:29.829Z,77.62
2019-01-02T11:45:08.974Z,77.86
2019-01-02T11:47:37.704Z,76.52
2019-01-02T11:50:09.103Z,77.16
2019-01-02T11:52:37.807Z,76.75
2019-01-02T11:55:08.450Z,76.60
2019-01-02T11:57:37.311Z,74.52
2019-01-02T12:00:08.854Z,74.67
2019-01-02T12:02:37.294Z,74.80
2019-01-02T12:05:06.542Z,75.77
2019-01-02T12:07:35.225Z,74.84
2019-01-02T12:10:06.285Z,73.95
2019-01-02T12:12:34.953Z,73.50
2019-01-02T12:15:03.807Z,73.07
2019-01-02T12:17:32.219Z,73.73
2019-01-02T12:20:00.951Z,72.86
2019-01-02T12:22:30.299Z,71.63
2019-01-02T12:24:59.557Z,70.94
2019-01-02T12:27:28.135Z,69.91
2019-01-02T12:29:56.820Z,69.63
2019-01-02T12:32:25.520Z,69.98
2019-01-02T12:34:54.299Z,71.25
2019-01-02T12:37:22.693Z,71.37
2019-01-02T12:39:51.604Z,70.86
2019-01-02T12:42:20.312Z,71.16
2019-01-02T12:44:48.711Z,71.20
2019-01-02T12:47:17.406Z,71.74
2019-01-02T12:49:46.169Z,70.77
2019-01-02T12:52:14.940Z,70.62
2019-01-02T12:54:43.710Z,68.45
2019-01-02T12:57:12.130Z,68.17
2019-01-02T12:59:40.785Z,67.57
2019-01-02T13:02:24.492Z,69.16
2019-01-02T13:05:02.286Z,68.58
2019-01-02T13:07:50.308Z,67.43
2019-01-02T13:10:22.044Z,68.14
2019-01-02T13:12:56.852Z,65.92
2019-01-02T13:15:37.388Z,67.21
2019-01-02T13:18:09.153Z,66.28
2019-01-02T13:20:46.707Z,67.45
2019-01-02T13:23:39.638Z,69.05
2019-01-02T13:26:13.956Z,69.46
2019-01-02T13:28:54.259Z,67.81
2019-01-02T13:31:41.225Z,66.79
2019-01-02T13:34:38.485Z,66.62
2019-01-02T13:37:15.834Z,65.15
2019-01-02T13:40:02.025Z,64.59
2019-01-02T13:42:45.653Z,65.00
2019-01-02T13:45:22.906Z,63.43
2019-01-02T13:48:03.691Z,64.42
2019-01-02T13:50:38.123Z,65.17
2019-01-02T13:53:07.390Z,65.70
2019-01-02T13:55:36.148Z,66.11
2019-01-02T13:58:04.601Z,66.18
2019-01-02T14:00:33.058Z,66.13
2019-01-02T14:03:01.728Z,66.46
2019-01-02T14:05:31.070Z,66.65
2019-01-02T14:07:59.733Z,67.17
2019-01-02T14:10:29.671Z,68.20
2019-01-02T14:12:58.115Z,68.63
2019-01-02T14:15:27.075Z,69.63
2019-01-02T14:17:55.770Z,71.16
2019-01-02T14:20:24.462Z,72.52
2019-01-02T14:22:53.161Z,72.04
2019-01-02T14:25:22.436Z,73.15
2019-01-02T14:27:51.137Z,71.94
2019-01-02T14:30:19.823Z,71.20
2019-01-02T14:32:48.304Z,70.12
2019-01-02T14:35:22.312Z,71.54
2019-01-02T14:37:47.397Z,71.39
2019-01-02T14:40:15.818Z,70.89
2019-01-02T14:42:44.245Z,70.83
2019-01-02T14:45:12.681Z,70.63
2019-01-02T14:47:41.364Z,69.85
2019-01-02T14:50:10.364Z,71.88
2019-01-02T14:52:43.213Z,70.50
2019-01-02T14:55:09.699Z,71.15
2019-01-02T14:57:38.466Z,72.00
2019-01-02T15:00:10.267Z,70.30
2019-01-02T15:02:38.671Z,69.13
2019-01-02T15:05:07.509Z,70.25
2019-01-02T15:07:36.253Z,71.38
2019-01-02T15:10:07.732Z,69.79
2019-01-02T15:12:36.435Z,69.81
2019-01-02T15:15:07.559Z,70.55
2019-01-02T15:17:35.984Z,69.84
2019-01-02T15:20:07.217Z,70.91
2019-01-02T15:22:36.006Z,70.35
2019-01-02T15:25:05.812Z,70.15
2019-01-02T15:27:34.649Z,67.05
2019-01-02T15:30:03.382Z,68.43
2019-01-02T15:32:32.120Z,68.91
2019-01-02T15:35:00.810Z,69.93
2019-01-02T15:37:29.235Z,67.72
2019-01-02T15:39:57.681Z,68.93
2019-01-02T15:42:26.377Z,71.19
2019-01-02T15:44:55.095Z,69.72
2019-01-02T15:47:24.807Z,68.32
2019-01-02T15:49:53.256Z,69.37
2019-01-02T15:52:21.934Z,69.73
2019-01-02T15:54:50.656Z,68.73
2019-01-02T15:57:19.062Z,68.65
2019-01-02T15:59:47.756Z,69.36
2019-01-02T16:02:16.436Z,69.60
2019-01-02T16:04:45.190Z,69.38
2019-01-02T16:07:13.889Z,69.54
2019-01-02T16:09:42.386Z,70.25
2019-01-02T16:12:11.122Z,70.03
2019-01-02T16:14:39.494Z,72.30
2019-01-02T16:17:08.216Z,73.37
2019-01-02T16:19:36.701Z,70.69
2019-01-02T16:22:05.460Z,71.49
2019-01-02T16:24:33.949Z,71.55
2019-01-02T16:27:02.600Z,72.31
2019-01-02T16:29:31.289Z,72.41
2019-01-02T16:31:59.979Z,71.26
2019-01-02T16:34:28.686Z,74.11
2019-01-02T16:36:57.148Z,74.04
2019-01-02T16:39:25.912Z,75.26
2019-01-02T16:41:54.613Z,74.91
2019-01-02T16:44:23.308Z,75.78
2019-01-02T16:46:52.017Z,75.57
2019-01-02T16:49:20.716Z,75.91
2019-01-02T16:51:49.424Z,77.22
2019-01-02T16:54:18.150Z,77.84
2019-01-02T16:56:46.857Z,77.45
2019-01-02T16:59:15.626Z,77.37
2019-01-02T17:01:44.339Z,78.17
2019-01-02T17:04:12.761Z,78.36
2019-01-02T17:06:41.482Z,79.64
2019-01-02T17:09:10.371Z,79.96
2019-01-02T17:11:39.121Z,78.89
2019-01-02T17:14:07.556Z,78.74
2019-01-02T17:16:36.337Z,79.23
2019-01-02T17:19:05.110Z,79.29
2019-01-02T17:21:33.897Z,79.89
2019-01-02T17:24:02.647Z,79.53
2019-01-02T17:26:31.394Z,79.94
2019-01-02T17:29:00.186Z,79.64
2019-01-02T17:31:28.930Z,79.56
2019-01-02T17:33:57.704Z,80.63
2019-01-02T17:36:26.451Z,80.55
2019-01-02T17:38:55.127Z,81.12
2019-01-02T17:41:23.937Z,81.39
2019-01-02T17:43:52.385Z,81.11
2019-01-02T17:46:23.164Z,81.61
2019-01-02T17:48:51.610Z,82.18
2019-01-02T17:51:20.300Z,82.14
2019-01-02T17:53:49.008Z,82.91
2019-01-02T17:56:17.686Z,82.90
2019-01-02T17:58:46.476Z,82.45
2019-01-02T18:01:14.894Z,82.85
2019-01-02T18:03:43.679Z,82.62
2019-01-02T18:06:12.366Z,83.74
2019-01-02T18:08:40.791Z,83.16
2019-01-02T18:11:09.601Z,82.54
2019-01-02T18:13:38.400Z,82.72
2019-01-02T18:16:07.189Z,83.09
2019-01-02T18:18:35.761Z,83.78
2019-01-02T18:21:04.605Z,83.19
2019-01-02T18:23:33.010Z,83.47
2019-01-02T18:26:01.816Z,83.06
2019-01-02T18:28:30.249Z,83.10
2019-01-02T18:30:58.963Z,83.50
2019-01-02T18:33:27.683Z,83.79
2019-01-02T18:35:56.409Z,84.24
2019-01-02T18:38:24.824Z,84.77
2019-01-02T18:40:53.543Z,84.32
2019-01-02T18:43:22.360Z,84.49
2019-01-02T18:45:51.044Z,85.30
2019-01-02T18:48:19.805Z,84.50
2019-01-02T18:50:48.597Z,84.78
2019-01-02T18:53:17.285Z,85.00
2019-01-02T18:55:45.997Z,85.73
2019-01-02T18:58:14.717Z,84.87
2019-01-02T19:00:43.429Z,85.40
2019-01-02T19:03:12.145Z,85.74
2019-01-02T19:05:40.654Z,85.98
2019-01-02T19:08:09.339Z,85.28
2019-01-02T19:10:39.035Z,85.75
2019-01-02T19:13:07.732Z,85.54
2019-01-02T19:15:36.420Z,85.60
2019-01-02T19:18:05.720Z,85.87
2019-01-02T19:20:34.430Z,85.85
2019-01-02T19:23:03.140Z,86.00
2019-01-02T19:25:31.884Z,85.62
2019-01-02T19:28:00.579Z,86.41
2019-01-02T19:30:28.992Z,86.71
2019-01-02T19:32:57.757Z,86.59
2019-01-02T19:35:26.480Z,86.49
2019-01-02T19:37:55.153Z,86.71
2019-01-02T19:40:24.016Z,86.49
2019-01-02T19:42:53.266Z,86.55
2019-01-02T19:45:22.001Z,86.79
2019-01-02T19:47:50.740Z,86.64
2019-01-02T19:50:19.151Z,87.07
2019-01-02T19:52:47.865Z,87.18
2019-01-02T19:55:16.337Z,87.08
2019-01-02T19:57:45.063Z,86.70
2019-01-02T20:00:13.746Z,86.55
2019-01-02T20:02:42.476Z,86.86
2019-01-02T20:05:10.902Z,86.96
2019-01-02T20:07:39.698Z,87.17
2019-01-02T20:10:09.826Z,86.87
2019-01-02T20:12:38.720Z,86.88
2019-01-02T20:15:09.941Z,87.07
2019-01-02T20:17:39.073Z,87.43
2019-01-02T20:20:10.196Z,87.64
2019-01-02T20:22:39.175Z,87.56
2019-01-02T20:25:08.224Z,87.82
2019-01-02T20:27:37.998Z,87.26
2019-01-02T20:30:09.798Z,87.55
2019-01-02T20:32:38.502Z,87.74
2019-01-02T20:35:07.245Z,87.96
2019-01-02T20:37:38.052Z,87.86
2019-01-02T20:40:07.739Z,88.65
2019-01-02T20:42:36.466Z,88.73
2019-01-02T20:45:05.685Z,88.78
2019-01-02T20:47:34.399Z,88.36
2019-01-02T20:50:03.168Z,88.05
2019-01-02T20:52:31.629Z,88.34
2019-01-02T20:55:00.374Z,88.85
2019-01-02T20:57:29.134Z,88.68
2019-01-02T20:59:57.853Z,88.91
2019-01-02T21:02:26.936Z,88.88
2019-01-02T21:04:55.697Z,88.63
2019-01-02T21:07:25.180Z,88.29
2019-01-02T21:09:53.945Z,88.44
2019-01-02T21:12:22.731Z,88.74
2019-01-02T21:14:51.154Z,88.69
2019-01-02T21:17:19.631Z,88.54
2019-01-02T21:19:48.415Z,88.97
2019-01-02T21:22:17.217Z,88.69
2019-01-02T21:24:45.951Z,88.97
2019-01-02T21:27:14.627Z,88.91
2019-01-02T21:29:43.360Z,88.97
2019-01-02T21:32:12.071Z,89.08
2019-01-02T21:34:41.530Z,89.00
2019-01-02T21:37:10.203Z,89.16
2019-01-02T21:39:40.392Z,89.06
2019-01-02T21:42:08.919Z,89.49
2019-01-02T21:44:37.619Z,89.52
2019-01-02T21:47:06.264Z,89.80
2019-01-02T21:49:34.962Z,89.72
2019-01-02T21:52:03.753Z,89.75
2019-01-02T21:54:32.285Z,89.83
2019-01-02T21:57:01.198Z,90.03
2019-01-02T21:59:29.946Z,89.99
2019-01-02T22:01:58.762Z,90.07
2019-01-02T22:04:28.142Z,90.08
2019-01-02T22:06:58.019Z,90.10
2019-01-02T22:09:26.818Z,89.74
2019-01-02T22:11:57.049Z,90.22
2019-01-02T22:14:25.719Z,90.66
2019-01-02T22:16:54.432Z,90.10
2019-01-02T22:19:22.904Z,90.15
2019-01-02T22:21:51.637Z,90.19
2019-01-02T22:24:22.453Z,90.30
2019-01-02T22:26:51.145Z,90.62
2019-01-02T22:29:19.905Z,90.66
2019-01-02T22:31:48.692Z,90.65
2019-01-02T22:34:17.880Z,90.52
2019-01-02T22:36:46.655Z,90.71
2019-01-02T22:39:15.361Z,90.58
2019-01-02T22:41:45.651Z,90.72
2019-01-02T22:44:16.123Z,90.96
2019-01-02T22:46:44.577Z,90.71
2019-01-02T22:49:13.119Z,90.76
2019-01-02T22:51:41.829Z,90.88
2019-01-02T22:54:10.517Z,90.90
2019-01-02T22:56:39.253Z,91.02
2019-01-02T22:59:09.390Z,91.29
2019-01-02T23:01:39.866Z,91.20
2019-01-02T23:04:17.786Z,90.71
2019-01-02T23:06:49.454Z,91.11
2019-01-02T23:09:25.477Z,91.43
2019-01-02T23:12:01.910Z,91.48
2019-01-02T23:14:37.773Z,91.64
2019-01-02T23:17:10.735Z,91.39
2019-01-02T23:19:42.077Z,91.25
2019-01-02T23:22:19.159Z,91.08
2019-01-02T23:24:51.967Z,91.08
2019-01-02T23:27:31.685Z,91.52
2019-01-02T23:30:18.558Z,91.70
2019-01-02T23:32:51.293Z,91.71
2019-01-02T23:35:30.708Z,91.71
2019-01-02T23:38:16.297Z,91.82
2019-01-02T23:41:03.109Z,91.37
2019-01-02T23:43:51.327Z,91.49
2019-01-02T23:46:39.765Z,91.95
2019-01-02T23:49:12.923Z,91.83
2019-01-02T23:51:58.188Z,91.94
2019-01-02T23:54:43.201Z,92.00
2019-01-02T23:57:16.082Z,92.03
